If you wish to contribute or participate in the discussions about articles you are invited to join SKYbrary as a registered user

 Actions

Évreux-Fauville (BA 105) Air Base

From SKYbrary Wiki

LFOE
Airport
ICAO: LFOE
Summary
Name Évreux-Fauville (BA 105) Air Base
Region Europe
Territory France FR.gif
Location , Haute-Normandie
Serving Evreux
Elevation 141.427 m
464 ft
464 ft141.427 m
Type medium airport
Coordinates 49° 1' 43.21" N, 1° 13' 11.51" E
Runways
Designator Length Width Surface ROPS
4/22 2995 m9,826.116 ft
45 m147.638 ft
ASP /


METAR
Observation LFOE 102230Z AUTO 19018KT 9999 OVC014 08/06 Q1013 TEMPO 4000 RADZ BKN005 BECMG 18015G25KT
Station Evreux
Date/Time 10 December 2019 22:30:00
Wind direction 190°
Wind speed 18 kts
Lowest cloud amount overcast
Temperature 8°C
Dew point 6°C
Humidity 87%
QNH 1013 hPa
Weather condition n/a